Time;durP1;ratioP1;P1;durP2;ratioP2;P2;SDS_P1;SDS_P2;PMS_P1;PMS_P2;Temp;Humidity;BMP_temperature;BMP_pressure;BME280_temperature;BME280_humidity;BME280_pressure;Samples;Min_cycle;Max_cycle;Signal;HPM_P1;HPM_P2
2022/09/20 00:01:17;;;;;;;3.40;3.30;;;21.50;65.60;;;;;;5041186;28;44477;-76
2022/09/20 00:03:46;;;;;;;4.27;3.83;;;21.60;65.30;;;;;;5042289;28;43487;-76
2022/09/20 00:06:17;;;;;;;3.77;3.57;;;21.50;65.20;;;;;;5045035;28;43382;-75
2022/09/20 00:08:45;;;;;;;3.83;3.63;;;21.40;65.30;;;;;;5035325;28;45278;-75
2022/09/20 00:11:14;;;;;;;3.87;3.67;;;21.40;65.50;;;;;;5064229;28;45021;-76
2022/09/20 00:13:43;;;;;;;3.80;3.60;;;21.30;66.20;;;;;;5033928;28;43410;-75
2022/09/20 00:16:13;;;;;;;3.73;3.53;;;21.30;66.30;;;;;;5042106;28;43426;-74
2022/09/20 00:18:41;;;;;;;4.00;3.80;;;21.30;66.20;;;;;;5047863;28;45810;-76
2022/09/20 00:21:15;;;;;;;3.60;3.40;;;21.20;66.10;;;;;;5043392;28;44729;-76
2022/09/20 00:23:43;;;;;;;3.73;3.43;;;21.20;66.20;;;;;;5041500;28;43867;-77
2022/09/20 00:26:12;;;;;;;3.50;3.40;;;21.20;66.60;;;;;;5041684;28;43479;-76
2022/09/20 00:28:40;;;;;;;3.70;3.50;;;21.20;66.80;;;;;;5039939;28;45364;-76
2022/09/20 00:31:07;;;;;;;3.37;3.23;;;21.20;66.40;;;;;;5048285;28;43399;-76
2022/09/20 00:36:22;;;;;;;3.80;3.60;;;21.40;66.00;;;;;;5040125;28;43372;-76
2022/09/20 00:38:54;;;;;;;3.53;3.33;;;21.30;65.80;;;;;;5045949;28;44269;-76
2022/09/20 00:41:22;;;;;;;4.03;3.43;;;21.30;66.30;;;;;;5051217;28;43474;-75
2022/09/20 00:43:50;;;;;;;3.60;3.50;;;21.30;66.20;;;;;;5043541;28;43428;-76
2022/09/20 00:46:21;;;;;;;3.40;3.30;;;21.30;66.00;;;;;;5038858;28;43439;-76
2022/09/20 00:48:51;;;;;;;3.30;3.10;;;21.20;66.00;;;;;;5040825;28;43684;-76
2022/09/20 00:51:23;;;;;;;3.37;3.20;;;21.20;66.10;;;;;;5039744;28;43385;-77
2022/09/20 00:53:51;;;;;;;3.47;3.37;;;21.20;66.80;;;;;;5045465;28;43430;-75
2022/09/20 00:56:21;;;;;;;3.60;3.40;;;21.20;66.60;;;;;;5046063;28;43338;-75
2022/09/20 00:58:50;;;;;;;3.33;3.23;;;21.30;66.30;;;;;;5039344;28;43595;-76
2022/09/20 01:01:18;;;;;;;3.53;3.43;;;21.40;66.10;;;;;;5033686;28;44943;-75
2022/09/20 01:03:46;;;;;;;3.40;3.20;;;21.40;65.90;;;;;;5013457;28;43805;-77
2022/09/20 01:06:15;;;;;;;3.47;3.27;;;21.30;65.80;;;;;;5016540;28;44048;-76
2022/09/20 01:08:46;;;;;;;3.40;3.20;;;21.30;66.30;;;;;;5025109;28;43837;-78
2022/09/20 01:11:14;;;;;;;3.50;3.30;;;21.30;66.10;;;;;;5014258;28;44053;-76
2022/09/20 01:13:43;;;;;;;3.00;2.90;;;21.30;66.10;;;;;;5017335;28;43969;-78
2022/09/20 01:16:11;;;;;;;3.30;3.10;;;21.20;66.00;;;;;;5022718;28;43314;-75
2022/09/20 01:18:39;;;;;;;2.93;2.83;;;21.20;66.20;;;;;;5018764;28;43833;-78
2022/09/20 01:21:07;;;;;;;3.33;3.23;;;21.20;66.70;;;;;;5024130;28;44412;-75
2022/09/20 01:23:40;;;;;;;3.13;3.03;;;21.20;66.50;;;;;;5015631;28;43417;-75
2022/09/20 01:26:31;;;;;;;2.67;2.57;;;21.20;66.50;;;;;;5019566;28;43428;-75
2022/09/20 01:29:06;;;;;;;3.47;3.27;;;21.10;66.40;;;;;;5011492;28;47226;-76
2022/09/20 01:31:35;;;;;;;3.20;3.10;;;21.10;66.40;;;;;;5018020;28;43415;-75
2022/09/20 01:34:04;;;;;;;3.20;3.10;;;21.10;66.60;;;;;;5024233;28;43379;-75
2022/09/20 01:36:34;;;;;;;3.20;3.10;;;21.00;66.60;;;;;;5022943;28;44128;-75
2022/09/20 01:39:07;;;;;;;3.20;3.10;;;21.00;66.70;;;;;;5018098;28;44272;-75
2022/09/20 01:41:36;;;;;;;3.27;3.17;;;21.00;66.80;;;;;;5013921;28;45083;-76
2022/09/20 01:44:09;;;;;;;2.87;2.77;;;21.00;66.80;;;;;;5023478;28;43349;-76
2022/09/20 01:46:37;;;;;;;3.00;2.90;;;21.00;66.90;;;;;;5012200;28;43439;-75
2022/09/20 01:49:16;;;;;;;2.93;2.83;;;20.90;66.90;;;;;;5010407;28;46284;-76
2022/09/20 01:52:13;;;;;;;3.13;3.03;;;20.90;66.90;;;;;;5010528;28;43505;-77
2022/09/20 01:54:56;;;;;;;3.30;3.20;;;20.90;67.50;;;;;;5048011;28;44024;-77
2022/09/20 01:57:42;;;;;;;2.80;2.70;;;21.10;67.30;;;;;;5021789;28;43585;-76
2022/09/20 02:00:16;;;;;;;2.73;2.63;;;21.20;66.60;;;;;;5019711;28;43945;-75
2022/09/20 02:03:12;;;;;;;2.87;2.77;;;21.50;66.10;;;;;;5020538;28;43356;-76
2022/09/20 02:05:58;;;;;;;2.73;2.63;;;21.60;65.20;;;;;;5015914;28;43443;-74
2022/09/20 02:08:36;;;;;;;2.90;2.80;;;21.90;64.50;;;;;;5019514;28;43452;-73
2022/09/20 02:11:06;;;;;;;2.70;2.60;;;22.10;63.90;;;;;;5015955;28;46045;-77
2022/09/20 02:13:42;;;;;;;2.90;2.80;;;22.20;63.40;;;;;;5019685;28;43449;-76
2022/09/20 02:16:30;;;;;;;2.87;2.77;;;22.30;62.90;;;;;;5013212;28;43439;-75
2022/09/20 02:19:18;;;;;;;2.73;2.63;;;22.40;62.70;;;;;;5020134;28;43538;-75
2022/09/20 02:21:48;;;;;;;3.00;2.90;;;22.50;62.40;;;;;;5026545;28;43902;-77
2022/09/20 02:24:20;;;;;;;2.87;2.77;;;22.50;62.20;;;;;;5017982;28;43455;-74
2022/09/20 02:26:51;;;;;;;2.73;2.63;;;22.60;62.10;;;;;;5015532;28;43430;-75
2022/09/20 02:29:34;;;;;;;2.87;2.77;;;22.60;62.00;;;;;;5024862;28;43927;-77
2022/09/20 02:32:15;;;;;;;2.93;2.83;;;22.50;62.20;;;;;;5008725;28;43616;-76
2022/09/20 02:34:50;;;;;;;3.03;2.93;;;22.40;62.60;;;;;;5020853;28;43433;-76
2022/09/20 02:37:40;;;;;;;2.60;2.50;;;22.20;63.10;;;;;;5028140;28;43922;-76
2022/09/20 02:40:17;;;;;;;2.80;2.60;;;22.00;63.60;;;;;;5017028;28;43444;-76
2022/09/20 02:42:47;;;;;;;3.00;2.90;;;21.90;64.10;;;;;;5022883;28;43802;-75
2022/09/20 02:45:18;;;;;;;2.90;2.80;;;21.90;64.40;;;;;;5015359;28;45018;-76
2022/09/20 02:47:48;;;;;;;2.70;2.60;;;21.80;64.60;;;;;;5016851;28;43391;-76
2022/09/20 02:50:21;;;;;;;2.70;2.60;;;21.60;64.60;;;;;;5014619;28;43527;-76
2022/09/20 02:53:08;;;;;;;3.00;2.90;;;21.50;65.30;;;;;;5012427;28;43805;-76
2022/09/20 02:55:40;;;;;;;2.67;2.57;;;21.50;65.40;;;;;;5026740;28;44775;-76
2022/09/20 02:58:25;;;;;;;2.43;2.40;;;21.60;65.10;;;;;;5019296;28;43494;-76
2022/09/20 03:00:55;;;;;;;2.70;2.60;;;21.60;65.00;;;;;;5019560;28;43371;-76
2022/09/20 03:03:31;;;;;;;2.57;2.47;;;21.60;65.00;;;;;;5024698;28;45700;-75
2022/09/20 03:06:01;;;;;;;2.40;2.30;;;21.50;65.10;;;;;;5017720;28;43488;-76
2022/09/20 03:08:33;;;;;;;2.60;2.50;;;21.50;65.40;;;;;;5015260;28;43443;-76
2022/09/20 03:11:07;;;;;;;2.50;2.40;;;21.50;65.40;;;;;;5016227;28;43518;-74
2022/09/20 03:13:43;;;;;;;2.60;2.50;;;21.50;65.40;;;;;;5015990;28;44032;-78
2022/09/20 03:16:15;;;;;;;2.80;2.70;;;21.40;65.40;;;;;;5017092;28;44065;-76
2022/09/20 03:18:49;;;;;;;2.80;2.70;;;21.30;65.90;;;;;;5018397;28;43490;-76
2022/09/20 03:21:25;;;;;;;2.60;2.50;;;21.30;66.00;;;;;;5024707;28;43480;-77
2022/09/20 03:23:58;;;;;;;2.77;2.67;;;21.40;65.70;;;;;;5021459;28;44823;-75
2022/09/20 03:26:32;;;;;;;2.60;2.50;;;21.50;65.30;;;;;;5017309;28;45122;-76
2022/09/20 03:29:03;;;;;;;2.50;2.50;;;21.60;65.00;;;;;;5016990;28;44056;-77
2022/09/20 03:31:42;;;;;;;2.50;2.43;;;21.70;64.90;;;;;;5016397;28;43372;-75
2022/09/20 03:34:19;;;;;;;2.50;2.40;;;21.60;64.90;;;;;;5023743;28;44115;-76
2022/09/20 03:36:58;;;;;;;2.40;2.40;;;21.50;65.00;;;;;;5018655;28;45001;-77
2022/09/20 03:39:49;;;;;;;2.30;2.20;;;21.40;65.50;;;;;;5017989;28;43459;-77
2022/09/20 03:42:19;;;;;;;2.43;2.40;;;21.40;66.00;;;;;;5024604;28;43526;-75
2022/09/20 03:45:05;;;;;;;2.30;2.30;;;21.40;65.90;;;;;;5014804;28;45606;-74
2022/09/20 03:47:47;;;;;;;2.53;2.43;;;21.30;65.80;;;;;;5021652;28;45143;-76
2022/09/20 03:50:26;;;;;;;2.30;2.30;;;21.20;65.90;;;;;;5007776;28;43461;-77
2022/09/20 03:53:02;;;;;;;2.10;2.10;;;21.20;66.50;;;;;;5011010;28;43358;-80
2022/09/20 03:55:50;;;;;;;2.27;2.17;;;21.20;66.20;;;;;;5012555;28;45791;-77
2022/09/20 03:58:28;;;;;;;2.30;2.20;;;21.40;65.80;;;;;;5007190;28;44443;-74
2022/09/20 04:01:06;;;;;;;2.27;2.17;;;21.50;65.60;;;;;;5026120;28;43915;-74
2022/09/20 04:03:38;;;;;;;2.60;2.50;;;21.50;65.60;;;;;;5016502;28;43431;-78
2022/09/20 04:06:17;;;;;;;2.20;2.10;;;21.40;65.80;;;;;;5019391;28;43849;-77
2022/09/20 04:08:54;;;;;;;2.20;2.20;;;21.40;65.90;;;;;;5014635;28;44628;-77
2022/09/20 04:11:25;;;;;;;2.00;2.00;;;21.40;65.80;;;;;;5017500;28;43416;-77
2022/09/20 04:13:56;;;;;;;2.20;2.20;;;21.30;65.80;;;;;;5029754;28;43436;-77
2022/09/20 04:16:30;;;;;;;2.20;2.20;;;21.20;65.80;;;;;;5017020;28;45204;-77
2022/09/20 04:19:00;;;;;;;2.23;2.23;;;21.20;66.50;;;;;;5020592;28;44055;-76
2022/09/20 04:21:32;;;;;;;2.07;2.07;;;21.20;66.40;;;;;;5009052;28;43400;-76
2022/09/20 04:24:03;;;;;;;2.20;2.20;;;21.20;66.30;;;;;;5013847;28;43443;-77
2022/09/20 04:26:32;;;;;;;1.93;1.93;;;21.20;66.30;;;;;;5012755;28;43846;-77
2022/09/20 04:29:07;;;;;;;2.03;2.03;;;21.10;66.20;;;;;;5015320;28;45748;-77
2022/09/20 04:31:40;;;;;;;1.70;1.70;;;21.10;66.80;;;;;;5016572;28;43972;-77
2022/09/20 04:34:12;;;;;;;2.10;2.03;;;21.20;66.70;;;;;;5014066;28;43930;-77
2022/09/20 04:36:56;;;;;;;1.90;1.90;;;21.30;66.20;;;;;;5014618;28;45419;-79
2022/09/20 04:39:33;;;;;;;2.30;2.20;;;21.40;65.70;;;;;;5015396;28;43411;-76
2022/09/20 04:42:35;;;;;;;2.10;2.10;;;21.50;65.30;;;;;;5020356;28;43453;-75
2022/09/20 04:45:34;;;;;;;2.10;2.10;;;21.50;65.30;;;;;;5014307;28;43634;-77
2022/09/20 04:48:39;;;;;;;1.97;1.90;;;21.50;65.40;;;;;;5015094;28;43707;-72
2022/09/20 04:51:23;;;;;;;2.40;2.37;;;21.40;65.60;;;;;;5024191;28;44247;-72
2022/09/20 04:54:16;;;;;;;2.10;2.10;;;21.20;66.10;;;;;;5021216;28;43397;-76
2022/09/20 04:56:53;;;;;;;2.07;2.00;;;21.20;65.90;;;;;;5018770;28;43418;-75
2022/09/20 04:59:23;;;;;;;2.13;2.03;;;21.20;65.90;;;;;;5013453;28;43619;-76
2022/09/20 05:02:23;;;;;;;2.30;2.23;;;21.10;65.90;;;;;;5017163;28;43484;-75
2022/09/20 05:05:23;;;;;;;2.30;2.20;;;21.10;66.10;;;;;;5008437;28;43385;-76
2022/09/20 05:08:04;;;;;;;2.03;2.03;;;21.10;66.70;;;;;;5018958;28;43503;-77
2022/09/20 05:11:08;;;;;;;1.70;1.70;;;21.20;66.40;;;;;;5010422;28;43846;-76
2022/09/20 05:13:41;;;;;;;2.20;2.10;;;21.30;66.00;;;;;;5019381;28;43410;-77
2022/09/20 05:16:12;;;;;;;2.40;2.30;;;21.40;65.80;;;;;;5013858;28;43417;-77
2022/09/20 05:19:05;;;;;;;2.00;1.77;;;21.30;65.70;;;;;;5009367;28;43437;-77
2022/09/20 05:22:09;;;;;;;2.17;2.17;;;21.30;66.20;;;;;;5015970;28;43920;-75
2022/09/20 05:24:51;;;;;;;1.93;1.93;;;21.30;66.10;;;;;;5015443;28;44053;-75
2022/09/20 05:27:29;;;;;;;2.00;2.00;;;21.20;65.90;;;;;;5011693;28;43370;-75
2022/09/20 05:30:02;;;;;;;2.20;2.20;;;21.20;66.00;;;;;;5033980;28;43535;-76
2022/09/20 05:32:36;;;;;;;2.13;2.13;;;21.10;66.40;;;;;;5018526;28;44237;-75
2022/09/20 05:35:06;;;;;;;1.90;1.90;;;21.10;66.60;;;;;;5020885;28;45073;-74
2022/09/20 05:37:41;;;;;;;2.17;2.10;;;21.10;66.40;;;;;;5014599;28;43531;-75
2022/09/20 05:40:17;;;;;;;1.90;1.90;;;21.10;66.40;;;;;;5018718;28;43451;-75
2022/09/20 05:42:52;;;;;;;2.10;2.10;;;21.10;66.40;;;;;;5027968;28;45307;-75
2022/09/20 05:45:28;;;;;;;2.00;2.00;;;21.10;66.90;;;;;;5019153;28;43450;-75
2022/09/20 05:47:58;;;;;;;2.20;2.10;;;21.10;66.80;;;;;;5022756;28;43474;-74
2022/09/20 05:50:44;;;;;;;2.07;2.07;;;21.20;66.40;;;;;;5033001;28;43371;-75
2022/09/20 05:53:39;;;;;;;1.93;1.93;;;21.40;65.90;;;;;;5017515;28;43611;-77
2022/09/20 05:56:12;;;;;;;2.07;1.97;;;21.50;65.50;;;;;;5010917;28;43438;-74
2022/09/20 05:59:12;;;;;;;1.90;1.90;;;21.50;65.40;;;;;;5020484;28;43502;-76
2022/09/20 06:01:41;;;;;;;1.87;1.87;;;21.40;65.40;;;;;;5012535;28;43897;-75
2022/09/20 06:04:16;;;;;;;2.30;2.07;;;21.30;65.60;;;;;;5015660;28;45423;-76
2022/09/20 06:06:49;;;;;;;4.77;2.53;;;21.20;65.90;;;;;;5021853;28;43500;-75
2022/09/20 06:09:26;;;;;;;3.07;2.77;;;21.20;66.40;;;;;;5027832;28;44013;-77
2022/09/20 06:12:03;;;;;;;3.03;2.83;;;21.20;66.30;;;;;;5015372;28;43483;-75
2022/09/20 06:14:40;;;;;;;2.73;2.53;;;21.10;66.20;;;;;;5017886;28;45623;-75
2022/09/20 06:17:16;;;;;;;3.80;2.70;;;21.10;67.00;;;;;;5017301;28;43416;-74
2022/09/20 06:19:46;;;;;;;3.07;2.80;;;21.10;66.70;;;;;;5015887;28;43889;-75
2022/09/20 06:22:16;;;;;;;3.20;2.90;;;21.10;66.80;;;;;;5020078;28;43430;-75
2022/09/20 06:24:46;;;;;;;3.30;3.03;;;21.20;66.60;;;;;;5015581;28;43608;-75
2022/09/20 06:27:17;;;;;;;4.60;2.80;;;21.30;66.20;;;;;;5020441;28;43484;-75
2022/09/20 06:29:49;;;;;;;4.20;2.83;;;21.30;66.00;;;;;;5007292;28;43477;-74
2022/09/20 06:32:17;;;;;;;3.60;3.30;;;21.30;65.90;;;;;;5019904;28;43385;-74
2022/09/20 06:34:45;;;;;;;4.20;3.00;;;21.20;66.20;;;;;;5026863;28;43910;-76
2022/09/20 06:43:02;;;;;;;3.77;2.80;;;21.20;66.10;;;;;;5018615;28;43346;-74
2022/09/20 06:45:32;;;;;;;4.77;3.50;;;21.10;66.10;;;;;;5010348;28;44225;-74
2022/09/20 06:48:01;;;;;;;4.40;3.30;;;21.10;66.70;;;;;;5022212;28;45216;-75
2022/09/20 06:50:29;;;;;;;3.27;2.97;;;21.10;66.70;;;;;;5008253;28;43463;-74
2022/09/20 06:52:57;;;;;;;3.17;2.97;;;21.10;66.50;;;;;;5026085;28;43364;-74
2022/09/20 06:55:27;;;;;;;4.73;3.30;;;21.00;66.40;;;;;;5021648;28;43909;-74
2022/09/20 06:57:56;;;;;;;3.80;3.17;;;21.00;66.60;;;;;;5021721;28;43544;-74
2022/09/20 07:00:24;;;;;;;3.07;2.87;;;21.00;66.90;;;;;;5015876;28;43365;-75
2022/09/20 07:02:55;;;;;;;4.23;3.30;;;21.10;66.70;;;;;;5021112;28;43997;-76
2022/09/20 07:05:23;;;;;;;4.63;3.50;;;21.20;66.30;;;;;;5027700;28;43751;-75
2022/09/20 07:07:56;;;;;;;3.40;2.90;;;21.30;66.20;;;;;;5024393;28;43481;-74
2022/09/20 07:10:24;;;;;;;3.33;3.13;;;21.30;65.90;;;;;;5021981;28;43469;-76
2022/09/20 07:12:52;;;;;;;3.27;3.00;;;21.20;66.20;;;;;;5017259;28;43499;-77
2022/09/20 07:15:21;;;;;;;3.43;3.13;;;21.20;66.20;;;;;;5020293;28;43838;-74
2022/09/20 07:17:49;;;;;;;3.60;2.90;;;21.20;66.10;;;;;;5020691;28;44183;-74
2022/09/20 07:20:19;;;;;;;3.27;3.07;;;21.20;66.20;;;;;;5022214;28;44069;-77
2022/09/20 07:22:48;;;;;;;3.57;3.27;;;21.10;66.10;;;;;;5021618;28;43444;-77
2022/09/20 07:25:17;;;;;;;4.30;2.90;;;21.10;66.70;;;;;;5013513;28;45842;-76
2022/09/20 07:27:46;;;;;;;4.57;3.17;;;21.10;66.70;;;;;;5020127;28;43784;-74
2022/09/20 07:30:14;;;;;;;5.03;3.37;;;21.10;66.50;;;;;;5020834;28;43784;-77
2022/09/20 07:32:42;;;;;;;2.97;2.77;;;21.10;67.30;;;;;;5016864;28;43524;-77
2022/09/20 07:35:10;;;;;;;3.53;3.17;;;21.00;66.50;;;;;;5017153;28;43923;-77
2022/09/20 07:37:40;;;;;;;3.37;3.00;;;21.00;67.00;;;;;;5021422;28;44715;-75
2022/09/20 07:40:09;;;;;;;4.43;3.50;;;21.00;66.90;;;;;;5026906;28;43491;-75
2022/09/20 07:42:37;;;;;;;3.93;3.33;;;21.20;66.70;;;;;;5012813;28;43416;-76
2022/09/20 07:45:07;;;;;;;3.40;3.10;;;21.30;66.30;;;;;;5017798;28;45848;-75
2022/09/20 07:47:35;;;;;;;3.07;2.87;;;21.40;65.80;;;;;;5009482;28;43487;-72
2022/09/20 07:50:03;;;;;;;3.50;3.20;;;21.40;65.60;;;;;;5022493;28;43553;-75
2022/09/20 07:52:31;;;;;;;3.53;3.20;;;21.40;65.40;;;;;;5014166;28;43510;-76
2022/09/20 07:55:00;;;;;;;2.97;2.77;;;21.30;65.60;;;;;;5035488;28;43889;-75
2022/09/20 07:57:28;;;;;;;3.30;3.10;;;21.30;65.80;;;;;;5007824;28;44013;-77
2022/09/20 07:59:57;;;;;;;4.20;3.33;;;21.20;66.20;;;;;;5018893;28;43487;-76
2022/09/20 08:02:25;;;;;;;3.47;2.90;;;21.20;66.60;;;;;;5018570;28;43652;-75
2022/09/20 08:04:53;;;;;;;2.80;2.60;;;21.10;66.40;;;;;;5025450;28;46708;-75
2022/09/20 08:07:21;;;;;;;2.97;2.77;;;21.10;66.40;;;;;;5016841;28;44901;-75
2022/09/20 08:09:49;;;;;;;3.50;3.20;;;21.10;66.40;;;;;;5009017;28;43424;-78
2022/09/20 08:12:18;;;;;;;3.13;2.87;;;21.00;66.50;;;;;;5023640;28;43420;-76
2022/09/20 08:15:08;;;;;;;3.00;2.80;;;21.00;66.90;;;;;;5019013;28;45251;-75
2022/09/20 08:17:39;;;;;;;3.10;2.90;;;21.10;66.70;;;;;;5021133;28;44338;-78
2022/09/20 08:20:08;;;;;;;3.53;3.23;;;21.20;66.30;;;;;;5023495;28;43475;-77
2022/09/20 08:22:38;;;;;;;3.27;2.97;;;21.30;65.90;;;;;;5030403;28;44087;-77
2022/09/20 08:25:07;;;;;;;3.13;2.83;;;21.40;65.80;;;;;;5022570;28;46108;-76
2022/09/20 08:27:36;;;;;;;3.37;3.13;;;21.40;65.70;;;;;;5024735;28;44409;-76
2022/09/20 08:30:07;;;;;;;2.70;2.50;;;21.30;65.80;;;;;;5019805;28;43577;-76
2022/09/20 08:32:38;;;;;;;3.43;3.13;;;21.20;65.90;;;;;;5027866;28;43899;-76
2022/09/20 08:35:06;;;;;;;2.80;2.60;;;21.10;66.40;;;;;;5016304;28;44078;-77
2022/09/20 08:37:34;;;;;;;2.93;2.73;;;21.10;66.70;;;;;;5007195;28;43897;-77
2022/09/20 08:40:03;;;;;;;3.60;3.30;;;21.10;66.50;;;;;;5017155;28;43439;-77
2022/09/20 08:42:32;;;;;;;3.53;2.87;;;21.10;66.50;;;;;;5021393;28;43926;-76
2022/09/20 08:45:07;;;;;;;3.20;3.00;;;21.00;66.40;;;;;;5015410;28;43779;-76
2022/09/20 08:47:36;;;;;;;3.07;2.87;;;21.00;67.10;;;;;;5017326;28;44606;-76
2022/09/20 08:50:05;;;;;;;3.33;2.90;;;21.00;67.00;;;;;;5013677;28;44037;-76
2022/09/20 08:52:39;;;;;;;4.07;2.87;;;21.10;66.70;;;;;;5014874;28;43449;-76
2022/09/20 08:55:15;;;;;;;3.40;3.10;;;21.20;66.40;;;;;;5018800;28;43777;-75
2022/09/20 08:57:45;;;;;;;4.53;2.97;;;21.20;66.10;;;;;;5019469;28;43547;-78
2022/09/20 09:00:17;;;;;;;3.07;2.73;;;21.20;66.20;;;;;;5017514;28;43856;-75
2022/09/20 09:02:45;;;;;;;3.53;3.23;;;21.20;66.40;;;;;;5015002;28;43435;-75
2022/09/20 09:05:30;;;;;;;3.10;2.83;;;21.20;66.30;;;;;;5013358;28;45656;-74
2022/09/20 09:07:59;;;;;;;2.93;2.77;;;21.10;66.10;;;;;;5012848;28;43432;-73
2022/09/20 09:10:29;;;;;;;3.07;2.80;;;21.10;66.30;;;;;;5011610;28;43479;-73
2022/09/20 09:12:57;;;;;;;3.00;2.80;;;21.00;66.60;;;;;;5014077;28;43468;-74
2022/09/20 09:15:28;;;;;;;3.07;2.77;;;21.00;66.80;;;;;;5014911;28;43943;-74
2022/09/20 09:17:56;;;;;;;3.03;2.87;;;21.00;66.60;;;;;;5018356;28;43521;-75
2022/09/20 09:20:25;;;;;;;3.23;3.03;;;21.00;66.60;;;;;;5023022;28;44066;-75
2022/09/20 09:23:00;;;;;;;6.73;3.00;;;21.00;66.60;;;;;;5010973;28;43539;-74
2022/09/20 09:25:31;;;;;;;3.13;2.87;;;20.90;66.00;;;;;;5026807;28;43648;-75
2022/09/20 09:28:00;;;;;;;5.67;2.87;;;21.00;66.30;;;;;;5012468;28;43739;-75
2022/09/20 09:30:30;;;;;;;7.93;3.10;;;21.10;66.30;;;;;;5008232;28;43417;-76
2022/09/20 09:33:22;;;;;;;3.10;2.73;;;21.20;65.90;;;;;;5012767;28;43472;-74
2022/09/20 09:35:54;;;;;;;6.40;3.10;;;21.30;65.60;;;;;;5019244;28;43754;-74
2022/09/20 09:38:24;;;;;;;3.40;3.10;;;21.30;65.40;;;;;;5020252;28;43545;-76
2022/09/20 09:40:53;;;;;;;5.03;2.93;;;21.30;65.40;;;;;;5021536;28;43992;-75
2022/09/20 09:43:25;;;;;;;2.83;2.63;;;21.20;65.60;;;;;;5015299;28;43816;-74
2022/09/20 09:45:55;;;;;;;5.87;3.10;;;21.10;65.80;;;;;;5016822;28;46366;-75
2022/09/20 09:48:25;;;;;;;2.87;2.67;;;21.10;66.50;;;;;;5017811;28;43510;-74
2022/09/20 09:51:07;;;;;;;3.90;2.80;;;21.10;66.50;;;;;;5023027;28;43403;-74
2022/09/20 09:53:35;;;;;;;4.00;3.03;;;21.00;66.30;;;;;;5020484;28;44019;-75
2022/09/20 09:56:13;;;;;;;3.70;2.97;;;21.00;66.30;;;;;;5033641;28;45290;-75
2022/09/20 09:58:55;;;;;;;2.77;2.57;;;21.00;66.50;;;;;;5011718;28;44637;-76
2022/09/20 10:01:29;;;;;;;3.57;2.70;;;20.90;66.90;;;;;;5012770;28;43493;-74
2022/09/20 10:04:02;;;;;;;3.30;2.87;;;21.00;66.80;;;;;;5032914;28;43420;-74
2022/09/20 10:06:32;;;;;;;2.43;2.33;;;20.90;66.60;;;;;;5018519;28;43935;-74
2022/09/20 10:09:10;;;;;;;2.60;2.50;;;20.90;66.60;;;;;;5019404;28;43511;-74
2022/09/20 10:11:46;;;;;;;2.93;2.60;;;20.90;66.70;;;;;;5023040;28;43458;-75
2022/09/20 10:14:21;;;;;;;2.87;2.73;;;20.90;67.20;;;;;;5029500;28;43432;-75
2022/09/20 10:16:58;;;;;;;4.30;2.97;;;21.00;67.00;;;;;;5025578;28;43920;-74
2022/09/20 10:19:43;;;;;;;2.80;2.60;;;21.10;66.50;;;;;;5014693;28;44083;-74
2022/09/20 10:22:18;;;;;;;2.87;2.67;;;21.30;66.20;;;;;;5029556;28;43510;-76
2022/09/20 10:24:48;;;;;;;3.07;2.83;;;21.30;65.70;;;;;;5028793;28;43562;-74
2022/09/20 10:27:34;;;;;;;3.30;3.00;;;21.30;65.60;;;;;;5021830;28;44124;-77
2022/09/20 10:30:05;;;;;;;2.67;2.47;;;21.20;65.60;;;;;;5018635;28;43567;-75
2022/09/20 10:32:44;;;;;;;3.53;2.70;;;21.20;65.90;;;;;;5013895;28;43779;-75
2022/09/20 10:35:16;;;;;;;2.90;2.67;;;21.10;66.40;;;;;;5026314;28;43736;-78
2022/09/20 10:37:51;;;;;;;3.03;2.80;;;21.10;66.60;;;;;;5022718;28;43836;-75
2022/09/20 10:40:25;;;;;;;2.70;2.60;;;21.10;66.40;;;;;;5019915;28;43460;-76
2022/09/20 10:43:15;;;;;;;3.13;2.93;;;21.00;66.40;;;;;;5017667;28;43450;-75
2022/09/20 10:45:48;;;;;;;3.00;2.80;;;21.00;66.50;;;;;;5013495;28;43462;-75
2022/09/20 10:48:41;;;;;;;2.93;2.73;;;20.90;67.00;;;;;;5018262;28;45393;-74
2022/09/20 10:51:13;;;;;;;2.80;2.60;;;21.00;66.90;;;;;;5014780;28;43493;-74
2022/09/20 10:53:43;;;;;;;2.53;2.40;;;20.90;66.70;;;;;;5028482;28;43984;-75
2022/09/20 10:56:19;;;;;;;2.30;2.20;;;20.90;66.70;;;;;;5013957;28;43933;-74
2022/09/20 10:59:08;;;;;;;2.70;2.60;;;20.90;66.80;;;;;;5011885;28;43614;-75
2022/09/20 11:01:38;;;;;;;2.70;2.50;;;20.90;67.30;;;;;;5013555;28;44634;-76
2022/09/20 11:04:21;;;;;;;3.77;3.00;;;21.00;67.00;;;;;;5014608;28;43442;-76
2022/09/20 11:06:51;;;;;;;2.60;2.47;;;21.20;66.70;;;;;;5018346;28;43945;-74
2022/09/20 11:09:20;;;;;;;9.87;3.00;;;21.30;66.00;;;;;;5019745;28;45662;-74
2022/09/20 11:11:50;;;;;;;3.77;2.40;;;21.40;65.30;;;;;;5019765;28;44266;-73
2022/09/20 11:14:20;;;;;;;2.67;2.57;;;21.40;65.40;;;;;;5026707;28;43901;-75
2022/09/20 11:16:50;;;;;;;2.90;2.70;;;21.30;65.60;;;;;;5020975;28;43503;-74
2022/09/20 11:19:25;;;;;;;4.30;2.90;;;21.20;65.80;;;;;;5018344;28;43865;-74
2022/09/20 11:21:54;;;;;;;2.60;2.50;;;21.10;66.40;;;;;;5022049;28;44795;-76
2022/09/20 11:24:27;;;;;;;3.57;3.00;;;21.10;66.50;;;;;;5021464;28;43431;-77
2022/09/20 11:26:56;;;;;;;3.03;2.80;;;21.00;66.30;;;;;;5015778;28;43415;-74
2022/09/20 11:29:27;;;;;;;3.03;2.83;;;21.00;66.40;;;;;;5016300;28;43963;-74
2022/09/20 11:31:56;;;;;;;2.80;2.60;;;21.00;66.50;;;;;;5020813;28;43947;-76
2022/09/20 11:34:28;;;;;;;2.50;2.30;;;20.90;67.00;;;;;;5018213;28;43347;-74
2022/09/20 11:36:58;;;;;;;2.83;2.63;;;21.00;67.00;;;;;;5023781;28;43440;-74
2022/09/20 11:39:29;;;;;;;2.47;2.37;;;20.90;66.70;;;;;;5009979;28;44017;-76
2022/09/20 11:41:58;;;;;;;2.80;2.60;;;20.90;66.60;;;;;;5012088;28;44066;-74
2022/09/20 11:44:26;;;;;;;3.07;2.80;;;20.90;66.70;;;;;;5010257;28;43381;-74
2022/09/20 11:46:55;;;;;;;2.57;2.40;;;20.90;67.20;;;;;;5022292;28;43444;-75
2022/09/20 11:49:25;;;;;;;3.23;2.83;;;20.90;67.20;;;;;;5011351;28;43616;-74
2022/09/20 11:52:09;;;;;;;2.47;2.37;;;21.10;66.90;;;;;;5014824;28;44258;-75
2022/09/20 11:54:46;;;;;;;2.53;2.43;;;21.20;66.50;;;;;;5015481;28;43371;-77
2022/09/20 11:57:15;;;;;;;3.90;2.83;;;21.30;65.90;;;;;;5020987;28;43380;-74
2022/09/20 11:59:48;;;;;;;2.50;2.40;;;21.40;65.60;;;;;;5022503;28;43603;-78
2022/09/20 12:02:18;;;;;;;2.43;2.30;;;21.30;65.40;;;;;;5011715;28;44715;-77
2022/09/20 12:04:48;;;;;;;2.77;2.57;;;21.20;65.60;;;;;;5021711;28;43446;-77
2022/09/20 12:07:18;;;;;;;2.50;2.40;;;21.20;65.90;;;;;;5012437;28;43480;-77
2022/09/20 12:09:51;;;;;;;2.57;2.47;;;21.10;66.40;;;;;;5027309;28;46228;-77
2022/09/20 12:12:31;;;;;;;2.63;2.43;;;21.10;66.50;;;;;;5015994;28;43353;-76
2022/09/20 12:15:00;;;;;;;2.37;2.20;;;21.10;66.40;;;;;;5019584;28;43423;-74
2022/09/20 12:18:03;;;;;;;2.00;1.90;;;21.10;66.40;;;;;;5021872;28;43614;-77
2022/09/20 12:21:07;;;;;;;2.30;2.20;;;21.00;66.40;;;;;;5041907;28;45595;-75
2022/09/20 12:24:02;;;;;;;2.50;2.40;;;21.00;66.90;;;;;;4978004;28;43516;-74
2022/09/20 12:26:44;;;;;;;2.10;2.10;;;21.00;66.60;;;;;;5018865;28;43523;-75
2022/09/20 12:29:53;;;;;;;2.33;2.13;;;21.00;66.60;;;;;;5021552;28;43477;-76
2022/09/20 12:32:55;;;;;;;2.30;2.20;;;21.00;66.70;;;;;;4969793;28;43935;-76
2022/09/20 12:36:00;;;;;;;2.40;2.30;;;20.90;67.20;;;;;;5015927;28;44498;-73
2022/09/20 12:38:36;;;;;;;2.33;2.23;;;21.00;66.90;;;;;;5048236;28;43977;-76
2022/09/20 12:41:09;;;;;;;2.43;2.30;;;21.20;66.60;;;;;;5029933;28;43967;-78
2022/09/20 12:43:39;;;;;;;2.30;2.20;;;21.30;66.00;;;;;;5015645;28;45866;-76
2022/09/20 12:46:07;;;;;;;2.40;2.30;;;21.40;65.80;;;;;;5013519;28;43543;-73
2022/09/20 12:48:39;;;;;;;2.30;2.20;;;21.40;65.50;;;;;;5023964;28;43423;-77
2022/09/20 12:54:05;;;;;;;2.40;2.30;;;21.30;65.80;;;;;;5012445;28;45639;-77
2022/09/20 12:56:36;;;;;;;2.50;2.40;;;21.20;66.40;;;;;;5013595;28;43366;-73
2022/09/20 12:59:06;;;;;;;2.33;2.13;;;21.20;66.60;;;;;;5017160;28;43451;-77
2022/09/20 13:01:38;;;;;;;2.40;2.30;;;21.10;66.30;;;;;;5013988;28;43607;-74
2022/09/20 13:04:54;;;;;;;2.10;2.00;;;21.10;66.40;;;;;;5015903;28;43931;-76
2022/09/20 13:07:46;;;;;;;2.40;2.30;;;21.10;66.50;;;;;;5014720;28;43536;-74
2022/09/20 13:10:25;;;;;;;2.17;2.07;;;21.00;67.00;;;;;;5012971;28;43374;-75
2022/09/20 13:13:12;;;;;;;2.50;2.40;;;21.00;67.00;;;;;;5025789;28;43651;-78
2022/09/20 13:15:42;;;;;;;2.40;2.30;;;21.00;66.80;;;;;;5020860;28;43816;-76
2022/09/20 13:18:14;;;;;;;2.43;2.33;;;21.00;66.70;;;;;;5023034;28;43799;-75
2022/09/20 13:20:43;;;;;;;2.50;2.40;;;21.00;66.80;;;;;;5015842;28;43502;-75
2022/09/20 13:23:18;;;;;;;2.30;2.20;;;20.90;67.20;;;;;;5025794;28;43420;-75
2022/09/20 13:25:46;;;;;;;2.47;2.37;;;20.90;67.20;;;;;;5037946;28;44120;-77
2022/09/20 13:28:24;;;;;;;2.33;2.23;;;20.90;66.90;;;;;;5018388;28;44749;-75
2022/09/20 13:31:28;;;;;;;2.40;2.30;;;20.90;66.90;;;;;;5026587;28;43424;-77
2022/09/20 13:34:16;;;;;;;2.60;2.50;;;20.90;66.90;;;;;;5019313;28;43436;-80
2022/09/20 13:36:44;;;;;;;2.20;2.10;;;20.90;67.40;;;;;;5012628;28;44305;-75
2022/09/20 13:39:23;;;;;;;2.00;1.90;;;21.00;67.30;;;;;;5028973;28;44284;-76